Time;durP1;ratioP1;P1;durP2;ratioP2;P2;SDS_P1;SDS_P2;PMS_P1;PMS_P2;Temp;Humidity;BMP_temperature;BMP_pressure;BME280_temperature;BME280_humidity;BME280_pressure;Samples;Min_cycle;Max_cycle;Signal;HPM_P1;HPM_P2
2023/11/20 00:01:42;;;;;;;0.88;0.88;;;11.10;93.50;;;;;;5022519;28;20205;-92
2023/11/20 00:04:10;;;;;;;1.00;0.90;;;11.20;93.60;;;;;;5027348;28;20218;-91
2023/11/20 00:06:36;;;;;;;1.08;0.95;;;11.20;93.30;;;;;;5027886;28;20195;-92
2023/11/20 00:09:03;;;;;;;1.77;1.15;;;11.20;93.30;;;;;;5027614;28;20205;-91
2023/11/20 00:11:30;;;;;;;1.10;1.00;;;11.10;93.30;;;;;;5012631;28;20207;-91
2023/11/20 00:13:57;;;;;;;1.15;0.95;;;11.10;93.80;;;;;;5026032;28;20205;-92
2023/11/20 00:16:28;;;;;;;1.23;0.82;;;11.10;93.80;;;;;;5025654;28;20209;-91
2023/11/20 00:21:39;;;;;;;3.45;0.60;;;11.10;93.90;;;;;;5017677;28;20218;-92
2023/11/20 00:24:07;;;;;;;1.30;1.20;;;11.20;93.60;;;;;;5049029;28;20222;-91
2023/11/20 00:26:34;;;;;;;0.90;0.90;;;11.20;93.50;;;;;;5054343;28;20273;-91
2023/11/20 00:29:01;;;;;;;2.13;1.23;;;11.30;93.30;;;;;;5049748;28;20207;-91
2023/11/20 00:34:14;;;;;;;1.40;1.13;;;11.40;93.40;;;;;;5027337;28;20292;-89
2023/11/20 00:36:42;;;;;;;1.83;1.08;;;11.40;93.40;;;;;;5022573;28;20707;-92
2023/11/20 00:39:09;;;;;;;1.33;1.10;;;11.30;93.40;;;;;;5025927;28;20199;-91
2023/11/20 00:41:37;;;;;;;1.52;1.00;;;11.20;93.60;;;;;;5027160;28;20204;-91
2023/11/20 00:44:06;;;;;;;1.05;0.90;;;11.30;93.40;;;;;;5024322;28;20226;-91
2023/11/20 00:49:36;;;;;;;1.60;0.93;;;11.20;93.90;;;;;;5003675;28;20251;-91
2023/11/20 00:52:04;;;;;;;1.08;0.80;;;11.10;94.20;;;;;;5028292;28;20301;-91
2023/11/20 00:54:33;;;;;;;1.10;0.80;;;11.10;94.30;;;;;;5021818;28;20212;-91
2023/11/20 00:57:00;;;;;;;2.70;1.00;;;11.00;94.50;;;;;;5029550;28;20713;-92
2023/11/20 00:59:27;;;;;;;1.08;0.95;;;11.00;94.60;;;;;;5023588;28;20207;-91
2023/11/20 01:04:37;;;;;;;0.80;0.80;;;10.90;94.90;;;;;;5020817;28;20218;-92
2023/11/20 01:07:04;;;;;;;1.15;0.95;;;10.90;95.20;;;;;;5023376;28;20210;-91
2023/11/20 01:09:31;;;;;;;1.42;0.90;;;10.90;95.30;;;;;;5026245;28;20198;-91
2023/11/20 01:11:58;;;;;;;1.15;0.80;;;10.90;95.30;;;;;;5020577;28;20559;-92
2023/11/20 01:14:25;;;;;;;2.10;1.20;;;10.80;95.50;;;;;;5032978;28;20202;-91
2023/11/20 01:16:51;;;;;;;2.83;1.20;;;10.80;95.90;;;;;;5029769;28;21466;-91
2023/11/20 01:19:20;;;;;;;1.25;1.02;;;10.80;95.90;;;;;;5024231;28;20191;-91
2023/11/20 01:21:48;;;;;;;1.92;1.10;;;10.70;95.90;;;;;;5021060;28;20222;-91
2023/11/20 01:24:17;;;;;;;3.58;1.10;;;10.70;95.90;;;;;;5019417;28;20218;-91
2023/11/20 01:29:27;;;;;;;0.75;0.75;;;10.60;96.30;;;;;;5025321;28;20280;-91
2023/11/20 01:37:16;;;;;;;2.90;1.00;;;10.30;97.10;;;;;;5019445;28;20210;-91
2023/11/20 01:39:43;;;;;;;1.60;1.00;;;10.40;97.40;;;;;;5030583;28;20204;-91
2023/11/20 01:42:10;;;;;;;2.25;0.98;;;10.40;97.50;;;;;;5025311;28;20205;-91
2023/11/20 01:44:37;;;;;;;1.13;0.90;;;10.50;97.40;;;;;;5018861;28;20222;-91
2023/11/20 01:52:29;;;;;;;4.20;1.30;;;10.60;97.40;;;;;;5016808;28;20288;-91
2023/11/20 01:54:57;;;;;;;1.25;0.95;;;10.70;97.20;;;;;;5026162;28;20285;-91
2023/11/20 01:57:24;;;;;;;0.98;0.88;;;10.80;96.80;;;;;;5026673;28;20211;-91
2023/11/20 02:02:32;;;;;;;1.10;1.00;;;10.80;96.80;;;;;;5028150;28;20614;-91
2023/11/20 02:05:04;;;;;;;0.90;0.90;;;10.70;96.90;;;;;;5030186;28;20353;-91
2023/11/20 02:07:50;;;;;;;1.75;0.93;;;10.60;96.90;;;;;;5004416;28;20214;-91
2023/11/20 02:10:18;;;;;;;1.20;1.00;;;10.50;97.00;;;;;;5031412;28;20213;-91
2023/11/20 02:12:45;;;;;;;0.90;0.82;;;10.40;97.30;;;;;;5031377;28;20206;-91
2023/11/20 02:15:12;;;;;;;1.35;1.10;;;10.50;97.20;;;;;;5029617;28;20283;-91
2023/11/20 02:17:39;;;;;;;1.25;1.10;;;10.40;97.20;;;;;;5025779;28;20206;-91
2023/11/20 02:20:10;;;;;;;3.85;1.00;;;10.40;97.10;;;;;;5027036;28;20199;-91
2023/11/20 02:22:55;;;;;;;1.23;1.13;;;10.40;97.20;;;;;;5004061;28;20272;-91
2023/11/20 02:25:22;;;;;;;1.02;1.00;;;10.30;97.40;;;;;;5029439;28;20245;-91
2023/11/20 02:30:40;;;;;;;2.05;1.20;;;10.30;97.40;;;;;;5004890;28;20203;-92
2023/11/20 02:33:07;;;;;;;1.50;0.85;;;10.40;97.00;;;;;;5030087;28;20286;-91
2023/11/20 02:35:34;;;;;;;1.50;1.08;;;10.30;97.00;;;;;;5030828;28;20627;-91
2023/11/20 02:38:02;;;;;;;1.50;1.00;;;10.30;97.10;;;;;;5023038;28;20202;-91
2023/11/20 02:40:30;;;;;;;1.63;1.10;;;10.30;97.00;;;;;;5025761;28;20203;-91
2023/11/20 02:42:57;;;;;;;2.47;1.25;;;10.30;97.00;;;;;;5026702;28;20203;-91
2023/11/20 02:45:24;;;;;;;3.40;1.02;;;10.30;96.80;;;;;;5028830;28;20237;-90
2023/11/20 02:47:53;;;;;;;1.00;0.90;;;10.30;96.80;;;;;;5028823;28;20321;-91
2023/11/20 02:50:20;;;;;;;1.60;1.17;;;10.30;96.60;;;;;;5028156;28;20198;-91
2023/11/20 02:52:47;;;;;;;2.08;1.10;;;10.50;95.90;;;;;;5021292;28;20241;-91
2023/11/20 02:55:14;;;;;;;2.85;1.10;;;10.40;95.80;;;;;;5024931;28;20532;-91
2023/11/20 02:57:41;;;;;;;1.77;1.08;;;10.40;95.80;;;;;;5027832;28;20547;-92
2023/11/20 03:00:11;;;;;;;2.70;1.27;;;10.40;96.10;;;;;;5023165;28;20286;-91
2023/11/20 03:02:38;;;;;;;1.60;1.05;;;10.30;96.60;;;;;;5030120;28;20199;-91
2023/11/20 03:08:15;;;;;;;1.08;0.90;;;10.30;96.20;;;;;;5012164;28;20218;-90
2023/11/20 03:10:42;;;;;;;2.25;0.82;;;10.40;95.80;;;;;;5025359;28;20679;-91
2023/11/20 03:13:13;;;;;;;1.50;0.90;;;10.40;95.80;;;;;;5028701;28;20198;-91
2023/11/20 03:15:40;;;;;;;1.52;0.80;;;10.40;95.80;;;;;;5016016;28;20272;-91
2023/11/20 03:18:07;;;;;;;2.72;0.85;;;10.40;95.80;;;;;;5031991;28;20754;-90
2023/11/20 03:23:17;;;;;;;2.75;1.20;;;10.30;96.20;;;;;;5001564;28;20260;-91
2023/11/20 03:28:28;;;;;;;2.78;1.30;;;10.30;95.80;;;;;;5025859;28;20214;-91
2023/11/20 03:30:55;;;;;;;1.02;0.90;;;10.30;95.90;;;;;;5034113;28;20198;-91
2023/11/20 03:33:22;;;;;;;3.13;1.25;;;10.40;95.80;;;;;;5029304;28;20199;-91
2023/11/20 03:38:31;;;;;;;2.75;0.85;;;10.40;95.80;;;;;;5030620;28;20207;-91
2023/11/20 03:40:58;;;;;;;1.00;0.90;;;10.40;95.80;;;;;;5057972;28;20262;-91
2023/11/20 03:43:27;;;;;;;1.58;0.98;;;10.50;95.50;;;;;;5033961;28;20301;-91
2023/11/20 03:45:53;;;;;;;2.70;0.98;;;10.60;95.20;;;;;;5017703;28;20218;-91
2023/11/20 03:48:22;;;;;;;1.77;1.23;;;10.70;95.00;;;;;;5031150;28;20202;-91
2023/11/20 03:53:31;;;;;;;1.42;1.08;;;10.70;94.90;;;;;;5023330;28;20789;-92
2023/11/20 03:55:58;;;;;;;1.77;0.95;;;10.70;94.60;;;;;;5020006;28;20198;-91
2023/11/20 03:58:25;;;;;;;1.25;0.90;;;10.80;94.20;;;;;;5024889;28;20203;-91
2023/11/20 04:00:52;;;;;;;5.43;1.20;;;10.70;94.10;;;;;;5013119;28;20722;-91
2023/11/20 04:03:19;;;;;;;2.72;1.10;;;10.70;94.00;;;;;;5028208;28;20851;-91
2023/11/20 04:05:48;;;;;;;1.83;1.10;;;10.60;93.90;;;;;;5030380;28;20224;-91
2023/11/20 04:08:16;;;;;;;2.40;1.00;;;10.60;94.10;;;;;;5031869;28;20194;-91
2023/11/20 04:10:43;;;;;;;2.53;1.00;;;10.70;93.30;;;;;;5025858;28;20202;-92
2023/11/20 04:13:10;;;;;;;3.03;0.98;;;10.70;93.50;;;;;;5000865;28;20199;-91
2023/11/20 04:15:37;;;;;;;1.98;1.20;;;10.60;93.50;;;;;;5008195;28;20553;-91
2023/11/20 04:18:04;;;;;;;1.30;0.90;;;10.60;93.50;;;;;;5026970;28;20655;-91
2023/11/20 04:20:31;;;;;;;1.85;1.10;;;10.50;93.30;;;;;;5023448;28;20260;-91
2023/11/20 04:22:58;;;;;;;1.33;1.17;;;10.50;93.50;;;;;;5022802;28;20667;-91
2023/11/20 04:25:27;;;;;;;2.03;1.27;;;10.50;93.30;;;;;;5028628;28;20702;-92
2023/11/20 04:27:53;;;;;;;2.35;1.10;;;10.40;93.60;;;;;;5028418;28;20198;-91
2023/11/20 04:30:22;;;;;;;1.50;1.13;;;10.40;93.40;;;;;;5007273;28;20199;-92
2023/11/20 04:32:49;;;;;;;1.92;1.25;;;10.40;93.40;;;;;;5025460;28;20245;-91
2023/11/20 04:35:16;;;;;;;1.50;1.05;;;10.30;93.60;;;;;;5013175;28;20195;-91
2023/11/20 04:37:42;;;;;;;2.00;1.00;;;10.30;93.60;;;;;;5015667;28;20205;-91
2023/11/20 04:40:11;;;;;;;2.00;1.00;;;10.10;93.90;;;;;;5028242;28;20199;-92
2023/11/20 04:45:20;;;;;;;2.20;1.15;;;10.10;94.10;;;;;;5026243;28;20222;-91
2023/11/20 04:47:46;;;;;;;3.08;1.30;;;10.10;93.70;;;;;;5028205;28;20282;-92
2023/11/20 04:50:13;;;;;;;3.80;1.20;;;10.10;93.90;;;;;;5026776;28;20206;-91
2023/11/20 04:52:42;;;;;;;3.47;1.00;;;10.10;93.80;;;;;;5026304;28;20226;-91
2023/11/20 04:55:09;;;;;;;3.05;1.00;;;10.10;93.80;;;;;;5029019;28;20203;-91
2023/11/20 04:57:36;;;;;;;1.25;1.05;;;10.00;94.10;;;;;;5025231;28;20217;-92
2023/11/20 05:02:47;;;;;;;2.58;1.35;;;10.10;93.50;;;;;;5021767;28;20951;-91
2023/11/20 05:05:14;;;;;;;2.30;1.17;;;10.10;93.40;;;;;;5026797;28;20218;-92
2023/11/20 05:08:01;;;;;;;3.13;1.20;;;10.20;93.00;;;;;;5020933;28;20207;-92
2023/11/20 05:10:28;;;;;;;2.33;1.20;;;10.10;93.00;;;;;;5022310;28;20207;-91
2023/11/20 05:12:55;;;;;;;4.07;1.20;;;10.10;93.10;;;;;;5025938;28;20213;-92
2023/11/20 05:15:23;;;;;;;1.90;1.15;;;10.20;93.00;;;;;;5022848;28;20204;-91
2023/11/20 05:20:31;;;;;;;2.15;1.35;;;10.10;93.30;;;;;;5017390;28;20211;-91
2023/11/20 05:22:58;;;;;;;4.80;1.25;;;10.10;93.10;;;;;;5029439;28;20209;-92
2023/11/20 05:25:25;;;;;;;2.55;1.35;;;10.10;93.10;;;;;;5027853;28;20687;-91
2023/11/20 05:27:53;;;;;;;1.63;1.00;;;10.10;93.40;;;;;;5010425;28;20639;-92
2023/11/20 05:30:20;;;;;;;2.63;1.35;;;10.00;93.60;;;;;;5020705;28;20198;-92
2023/11/20 05:35:29;;;;;;;3.15;1.20;;;10.00;93.60;;;;;;5030672;28;20213;-90
2023/11/20 05:37:55;;;;;;;3.65;1.20;;;9.90;94.40;;;;;;5035287;28;20256;-90
2023/11/20 05:40:22;;;;;;;4.47;1.45;;;9.90;94.60;;;;;;5031826;28;20206;-90
2023/11/20 05:42:50;;;;;;;3.42;1.63;;;9.90;94.90;;;;;;5025069;28;20199;-91
2023/11/20 05:45:17;;;;;;;1.70;1.10;;;9.90;95.00;;;;;;5030905;28;20277;-90
2023/11/20 05:47:44;;;;;;;2.17;1.27;;;10.00;94.50;;;;;;5029572;28;20203;-90
2023/11/20 05:50:13;;;;;;;2.08;1.02;;;10.10;94.50;;;;;;5029808;28;20204;-91
2023/11/20 05:52:39;;;;;;;2.92;1.40;;;10.10;94.40;;;;;;5026978;28;20687;-92
2023/11/20 05:55:08;;;;;;;2.35;1.33;;;10.10;94.60;;;;;;5028674;28;20205;-91
2023/11/20 05:57:55;;;;;;;3.10;1.35;;;10.20;94.30;;;;;;5023695;28;20224;-90
2023/11/20 06:00:22;;;;;;;1.38;1.17;;;10.20;94.40;;;;;;5024363;28;20214;-90
2023/11/20 06:02:49;;;;;;;1.33;1.10;;;10.10;94.50;;;;;;5027179;28;20199;-91
2023/11/20 06:05:18;;;;;;;3.17;1.15;;;10.10;94.60;;;;;;5029760;28;20695;-90
2023/11/20 06:07:45;;;;;;;2.33;1.20;;;10.20;94.50;;;;;;5024689;28;20207;-90
2023/11/20 06:10:12;;;;;;;5.65;1.42;;;10.20;94.40;;;;;;5031836;28;20265;-91
2023/11/20 06:12:40;;;;;;;2.65;1.10;;;10.10;94.50;;;;;;5028914;28;20207;-90
2023/11/20 06:15:08;;;;;;;2.22;1.42;;;10.10;94.60;;;;;;5011340;28;20198;-90
2023/11/20 06:17:36;;;;;;;3.78;1.25;;;10.10;94.40;;;;;;5027107;28;20199;-90
2023/11/20 06:20:04;;;;;;;3.10;1.10;;;10.20;94.10;;;;;;5025316;28;20196;-91
2023/11/20 06:22:33;;;;;;;2.50;1.42;;;10.20;93.90;;;;;;5029517;28;20252;-89
2023/11/20 06:25:01;;;;;;;1.67;1.20;;;10.10;94.00;;;;;;5029890;28;20198;-91
2023/11/20 06:27:28;;;;;;;3.85;1.40;;;10.10;93.90;;;;;;5016449;28;20206;-91
2023/11/20 06:29:55;;;;;;;5.00;1.40;;;10.00;94.00;;;;;;5014332;28;20245;-90
2023/11/20 06:32:23;;;;;;;3.67;1.77;;;10.00;94.00;;;;;;4996423;28;20202;-92
2023/11/20 06:34:50;;;;;;;2.08;1.20;;;10.00;93.80;;;;;;5028342;28;20202;-92
2023/11/20 06:37:17;;;;;;;2.83;1.15;;;10.00;94.10;;;;;;5026835;28;20206;-92
2023/11/20 06:39:45;;;;;;;3.25;1.40;;;9.90;94.40;;;;;;5030427;28;20559;-93
2023/11/20 06:42:12;;;;;;;3.35;1.02;;;9.90;94.60;;;;;;5031139;28;20199;-92
2023/11/20 06:44:40;;;;;;;2.17;1.10;;;9.80;94.70;;;;;;5020849;28;20199;-93
2023/11/20 06:47:26;;;;;;;1.75;1.30;;;9.80;94.60;;;;;;5027322;28;20206;-91
2023/11/20 06:49:53;;;;;;;6.85;1.40;;;9.90;94.30;;;;;;5050114;28;20246;-93
2023/11/20 06:52:20;;;;;;;3.92;1.27;;;9.90;94.10;;;;;;5056389;28;20258;-91
2023/11/20 06:54:49;;;;;;;2.83;1.23;;;9.90;94.20;;;;;;5039299;28;20228;-93
2023/11/20 06:57:16;;;;;;;3.88;1.67;;;9.90;94.50;;;;;;5027521;28;20206;-92
2023/11/20 06:59:45;;;;;;;3.15;1.40;;;9.80;94.40;;;;;;5030104;28;20284;-93
2023/11/20 07:02:14;;;;;;;3.72;1.40;;;9.80;94.50;;;;;;5029908;28;20279;-91
2023/11/20 07:04:44;;;;;;;1.33;0.93;;;9.70;94.80;;;;;;5030759;28;20231;-93
2023/11/20 07:07:11;;;;;;;3.08;1.30;;;9.80;94.80;;;;;;5023384;28;20219;-93
2023/11/20 07:09:39;;;;;;;1.63;1.27;;;9.80;94.50;;;;;;5025231;28;20229;-92
2023/11/20 07:15:10;;;;;;;3.85;1.50;;;10.10;93.70;;;;;;5028674;28;20237;-93
2023/11/20 07:17:37;;;;;;;3.70;1.45;;;10.20;92.90;;;;;;5032494;28;20286;-92
2023/11/20 07:20:05;;;;;;;2.97;1.20;;;10.30;92.70;;;;;;5034159;28;20846;-93
2023/11/20 07:22:32;;;;;;;3.42;1.40;;;10.30;92.60;;;;;;5030172;28;20291;-93
2023/11/20 07:24:59;;;;;;;5.03;1.52;;;10.30;92.70;;;;;;5032095;28;20191;-93
2023/11/20 07:27:58;;;;;;;2.70;1.23;;;10.30;92.30;;;;;;5021796;28;20214;-93
2023/11/20 07:30:34;;;;;;;6.10;1.42;;;10.30;92.70;;;;;;5029393;28;20206;-91
2023/11/20 07:33:02;;;;;;;4.47;1.98;;;10.40;92.80;;;;;;5031800;28;20194;-91
2023/11/20 07:35:32;;;;;;;16.90;11.90;;;10.50;92.00;;;;;;5026599;28;21390;-90
2023/11/20 07:37:59;;;;;;;56.08;42.65;;;10.60;92.60;;;;;;5025162;28;20195;-92
2023/11/20 07:40:46;;;;;;;10.05;5.63;;;10.80;92.50;;;;;;5024420;28;20640;-91
2023/11/20 07:43:14;;;;;;;17.13;12.75;;;11.00;91.40;;;;;;5027771;28;20231;-92
2023/11/20 07:45:49;;;;;;;3.95;2.70;;;11.00;92.10;;;;;;5023980;28;20304;-91
2023/11/20 07:50:56;;;;;;;5.15;3.95;;;11.00;91.30;;;;;;5030255;28;20245;-91
2023/11/20 07:53:23;;;;;;;3.10;1.50;;;11.00;91.30;;;;;;5026389;28;20200;-91
2023/11/20 07:55:50;;;;;;;5.40;1.92;;;11.00;90.50;;;;;;5027875;28;21485;-90
2023/11/20 07:58:18;;;;;;;4.88;1.85;;;11.00;90.50;;;;;;5020936;28;20207;-91
2023/11/20 08:00:45;;;;;;;3.30;1.90;;;11.00;90.50;;;;;;5027454;28;20221;-91
2023/11/20 08:03:13;;;;;;;4.22;1.45;;;10.90;90.90;;;;;;5014171;28;20284;-90
2023/11/20 08:05:44;;;;;;;4.60;1.75;;;11.00;90.50;;;;;;5014781;28;20610;-91
2023/11/20 08:08:11;;;;;;;5.78;2.28;;;10.90;90.60;;;;;;5018710;28;20246;-91
2023/11/20 08:13:21;;;;;;;4.20;1.50;;;11.20;91.30;;;;;;5000194;28;20289;-91
2023/11/20 08:16:08;;;;;;;3.95;1.48;;;11.20;90.60;;;;;;5012318;28;20207;-91
2023/11/20 08:18:37;;;;;;;3.20;1.35;;;11.20;90.20;;;;;;5023598;28;20635;-91
2023/11/20 08:26:47;;;;;;;4.78;1.50;;;11.40;89.70;;;;;;5013096;28;20309;-90
2023/11/20 08:31:56;;;;;;;5.03;1.60;;;11.40;89.70;;;;;;5019236;28;20203;-91
2023/11/20 08:34:24;;;;;;;4.53;1.70;;;11.50;89.20;;;;;;5024507;28;20200;-91
2023/11/20 08:36:51;;;;;;;4.35;1.55;;;11.70;89.20;;;;;;5026377;28;20198;-91
2023/11/20 08:39:21;;;;;;;3.97;2.00;;;11.80;86.90;;;;;;5000525;28;20206;-91
2023/11/20 08:41:48;;;;;;;4.07;1.45;;;12.00;85.40;;;;;;5029093;28;20206;-91
2023/11/20 08:46:58;;;;;;;4.10;1.50;;;12.30;79.60;;;;;;4997205;28;20230;-91
2023/11/20 08:49:26;;;;;;;2.85;1.52;;;12.50;80.00;;;;;;5023770;28;20687;-92
2023/11/20 08:51:53;;;;;;;6.90;1.55;;;12.70;79.10;;;;;;5027251;28;20306;-91
2023/11/20 08:54:21;;;;;;;3.25;1.60;;;12.90;75.80;;;;;;5027876;28;20212;-92
2023/11/20 08:56:51;;;;;;;3.28;1.45;;;13.00;74.40;;;;;;5022994;28;20195;-91
2023/11/20 09:02:04;;;;;;;38.28;26.30;;;13.40;66.00;;;;;;5028789;28;20199;-91
2023/11/20 09:04:31;;;;;;;3.85;1.55;;;13.70;57.50;;;;;;5024478;28;20202;-91
2023/11/20 09:06:58;;;;;;;3.55;1.50;;;14.00;50.50;;;;;;5025167;28;20306;-91
2023/11/20 09:09:25;;;;;;;6.75;3.28;;;14.50;43.50;;;;;;5025526;28;20206;-92
2023/11/20 09:11:52;;;;;;;4.82;1.50;;;14.70;41.10;;;;;;5028308;28;20226;-91
2023/11/20 09:14:20;;;;;;;5.60;1.95;;;14.90;38.20;;;;;;5028300;28;20209;-92
2023/11/20 09:16:47;;;;;;;6.47;1.48;;;14.70;40.70;;;;;;5028820;28;20209;-92
2023/11/20 09:19:15;;;;;;;3.65;2.00;;;14.90;36.40;;;;;;5026474;28;20202;-92
2023/11/20 09:21:42;;;;;;;6.60;2.22;;;15.00;37.90;;;;;;5024301;28;20613;-92
2023/11/20 09:24:09;;;;;;;5.82;1.55;;;15.00;35.20;;;;;;5022220;28;20593;-91
2023/11/20 09:26:37;;;;;;;6.47;2.28;;;15.30;33.50;;;;;;5026717;28;20226;-91
2023/11/20 09:29:06;;;;;;;3.38;1.65;;;15.40;32.00;;;;;;5014962;28;20254;-91
2023/11/20 09:31:35;;;;;;;3.55;1.40;;;15.60;31.00;;;;;;5028187;28;21686;-91
2023/11/20 09:34:02;;;;;;;4.22;1.58;;;15.70;28.40;;;;;;5030887;28;20652;-92
2023/11/20 09:36:30;;;;;;;4.07;1.50;;;15.60;28.30;;;;;;5015029;28;20199;-92
2023/11/20 09:38:57;;;;;;;3.25;1.30;;;15.80;28.50;;;;;;5022315;28;20281;-91
2023/11/20 09:41:26;;;;;;;2.63;1.55;;;16.20;27.70;;;;;;5024430;28;20259;-91
2023/11/20 09:43:57;;;;;;;3.40;1.50;;;16.30;26.60;;;;;;5029852;28;20198;-92
2023/11/20 09:46:28;;;;;;;6.55;1.80;;;16.60;24.60;;;;;;5029579;28;20926;-91
2023/11/20 09:48:59;;;;;;;2.78;1.55;;;16.50;24.80;;;;;;5022876;28;20190;-91
2023/11/20 09:51:28;;;;;;;5.07;1.60;;;16.30;24.00;;;;;;5022784;28;20270;-91
2023/11/20 09:53:57;;;;;;;3.85;1.33;;;16.00;24.90;;;;;;5028103;28;20195;-91
2023/11/20 09:56:24;;;;;;;2.65;1.33;;;16.00;25.90;;;;;;5033214;28;21270;-91
2023/11/20 09:58:51;;;;;;;3.15;1.50;;;16.00;25.10;;;;;;5027663;28;20198;-92
2023/11/20 10:01:19;;;;;;;4.88;1.73;;;15.90;25.20;;;;;;5044291;28;20266;-91
2023/11/20 10:09:36;;;;;;;6.05;1.70;;;14.90;27.80;;;;;;5026382;28;20218;-91
2023/11/20 10:12:06;;;;;;;4.10;1.65;;;15.10;28.00;;;;;;5014717;28;20256;-91
2023/11/20 10:14:54;;;;;;;3.05;1.58;;;15.30;26.60;;;;;;5023657;28;20199;-91
2023/11/20 10:17:41;;;;;;;4.25;1.77;;;15.70;25.00;;;;;;5023874;28;20206;-91
2023/11/20 10:20:09;;;;;;;6.75;1.55;;;15.30;25.10;;;;;;5034639;28;20205;-91
2023/11/20 10:22:38;;;;;;;5.32;1.77;;;14.90;24.90;;;;;;5028776;28;20644;-91
2023/11/20 10:25:06;;;;;;;4.40;1.42;;;14.40;27.30;;;;;;5032300;28;20203;-92
2023/11/20 10:27:37;;;;;;;2.65;1.30;;;14.00;27.00;;;;;;5024957;28;20688;-92
2023/11/20 10:33:05;;;;;;;3.88;1.52;;;13.50;30.90;;;;;;5021812;28;20290;-91
2023/11/20 10:35:33;;;;;;;3.35;1.40;;;13.50;30.60;;;;;;5034128;28;20218;-92
2023/11/20 10:40:59;;;;;;;4.40;1.50;;;13.60;31.90;;;;;;5025210;28;20199;-91
2023/11/20 10:43:27;;;;;;;4.97;1.58;;;13.90;28.50;;;;;;5026734;28;20204;-92
2023/11/20 10:45:56;;;;;;;2.83;1.50;;;13.90;28.50;;;;;;5020815;28;20195;-92
2023/11/20 10:48:24;;;;;;;5.88;1.45;;;13.80;28.50;;;;;;5028887;28;20215;-90
2023/11/20 10:50:52;;;;;;;4.97;1.67;;;13.90;31.00;;;;;;5028775;28;20215;-92
2023/11/20 10:56:05;;;;;;;6.47;1.45;;;14.00;27.00;;;;;;5018842;28;20203;-91
2023/11/20 10:58:33;;;;;;;5.40;1.52;;;14.30;27.20;;;;;;5031601;28;20723;-91
2023/11/20 11:01:01;;;;;;;5.45;1.80;;;14.20;27.20;;;;;;5009567;28;20261;-91
2023/11/20 11:03:30;;;;;;;5.35;1.55;;;14.10;27.10;;;;;;5025818;28;20210;-90
2023/11/20 11:06:03;;;;;;;5.88;1.67;;;13.90;28.00;;;;;;5026582;28;20206;-91
2023/11/20 11:08:32;;;;;;;4.40;1.70;;;13.50;29.40;;;;;;5025161;28;20234;-91
2023/11/20 11:11:01;;;;;;;6.15;1.50;;;13.30;29.60;;;;;;5025362;28;20199;-91
2023/11/20 11:16:22;;;;;;;5.15;1.55;;;13.30;30.40;;;;;;5026327;28;20205;-91
2023/11/20 11:18:56;;;;;;;6.28;1.73;;;13.40;32.00;;;;;;5027814;28;20206;-91
2023/11/20 11:21:31;;;;;;;5.50;1.60;;;13.30;30.50;;;;;;5032867;28;20252;-91
2023/11/20 11:27:07;;;;;;;5.75;1.80;;;13.40;30.30;;;;;;5025069;28;20223;-90
2023/11/20 11:36:20;;;;;;;4.60;1.55;;;13.00;31.30;;;;;;4987922;28;20202;-90
2023/11/20 11:38:57;;;;;;;3.35;1.60;;;12.90;31.20;;;;;;5027912;28;20210;-91
2023/11/20 11:47:22;;;;;;;7.47;1.45;;;13.10;29.80;;;;;;5017131;28;20496;-91
2023/11/20 11:49:49;;;;;;;6.07;1.40;;;12.90;28.70;;;;;;5025402;28;20198;-91
2023/11/20 11:52:21;;;;;;;9.70;2.63;;;12.90;29.30;;;;;;5031359;28;20225;-90
2023/11/20 11:58:05;;;;;;;3.40;1.65;;;12.40;31.70;;;;;;5007424;28;20238;-91
2023/11/20 12:00:32;;;;;;;3.15;1.40;;;12.30;32.00;;;;;;5025552;28;20282;-91
2023/11/20 12:03:01;;;;;;;12.00;3.97;;;12.30;34.30;;;;;;5022917;28;20822;-91
2023/11/20 12:08:57;;;;;;;4.13;1.48;;;12.40;32.40;;;;;;5026684;28;20287;-90
2023/11/20 12:11:49;;;;;;;8.18;2.45;;;12.50;32.60;;;;;;5026697;28;20194;-90
2023/11/20 12:14:18;;;;;;;6.53;2.15;;;12.50;31.80;;;;;;5026421;28;20198;-90
2023/11/20 12:16:45;;;;;;;6.30;2.20;;;12.50;34.50;;;;;;5025379;28;20641;-91
2023/11/20 12:19:12;;;;;;;7.93;2.50;;;12.30;32.60;;;;;;5024867;28;20203;-90
2023/11/20 12:21:42;;;;;;;6.18;1.85;;;12.20;32.40;;;;;;5031534;28;20210;-91
2023/11/20 12:24:10;;;;;;;15.15;4.75;;;12.10;32.80;;;;;;5010884;28;20229;-91
2023/11/20 12:26:37;;;;;;;6.25;3.00;;;12.10;34.70;;;;;;5030509;28;20205;-91
2023/11/20 12:29:05;;;;;;;10.13;3.50;;;12.30;33.00;;;;;;5029172;28;20195;-90
2023/11/20 12:34:14;;;;;;;4.88;1.60;;;12.40;31.90;;;;;;5027952;28;20272;-90
2023/11/20 12:36:41;;;;;;;5.43;1.63;;;12.40;31.40;;;;;;5010859;28;20199;-90
2023/11/20 12:39:13;;;;;;;2.88;1.40;;;12.40;31.00;;;;;;5026874;28;20638;-89
2023/11/20 12:41:41;;;;;;;3.78;1.45;;;12.40;31.30;;;;;;5029593;28;20202;-88
2023/11/20 12:44:09;;;;;;;4.68;1.42;;;12.40;33.00;;;;;;5029038;28;20322;-90
2023/11/20 12:49:19;;;;;;;4.88;1.70;;;12.50;33.60;;;;;;5019956;28;20203;-90
2023/11/20 12:51:46;;;;;;;8.27;1.92;;;12.60;33.30;;;;;;5029022;28;20223;-92
2023/11/20 12:54:13;;;;;;;4.15;1.48;;;12.60;33.00;;;;;;5030278;28;20222;-89
2023/11/20 12:56:41;;;;;;;4.03;1.45;;;12.80;33.90;;;;;;5033382;28;20198;-93
2023/11/20 12:59:08;;;;;;;4.50;1.52;;;12.90;32.80;;;;;;5033140;28;20293;-91
2023/11/20 13:04:18;;;;;;;3.78;1.60;;;12.80;31.30;;;;;;5022306;28;20199;-92
2023/11/20 13:06:47;;;;;;;4.50;1.48;;;12.70;33.50;;;;;;5029119;28;20293;-90
2023/11/20 13:09:15;;;;;;;3.85;1.58;;;12.70;32.20;;;;;;5027553;28;20210;-90
2023/11/20 13:11:42;;;;;;;4.22;1.38;;;12.70;35.40;;;;;;5030338;28;20285;-89
2023/11/20 13:14:09;;;;;;;4.75;1.63;;;12.70;34.60;;;;;;5042814;28;20206;-89
2023/11/20 13:16:40;;;;;;;3.83;1.38;;;12.70;36.50;;;;;;5038155;28;20229;-88
2023/11/20 13:19:07;;;;;;;2.58;1.50;;;12.60;36.40;;;;;;5033188;28;20206;-87
2023/11/20 13:21:34;;;;;;;5.00;1.63;;;12.60;36.40;;;;;;5028950;28;20542;-89
2023/11/20 13:24:04;;;;;;;5.05;1.40;;;12.60;36.10;;;;;;5028390;28;20563;-89
2023/11/20 13:26:32;;;;;;;3.75;1.50;;;12.50;37.00;;;;;;5027240;28;20582;-89
2023/11/20 13:28:59;;;;;;;5.10;1.45;;;12.40;38.70;;;;;;5025133;28;20218;-89
2023/11/20 13:31:33;;;;;;;5.03;1.63;;;12.50;37.30;;;;;;5021662;28;20290;-89
2023/11/20 13:34:01;;;;;;;7.03;1.60;;;12.50;39.70;;;;;;5025984;28;20544;-89
2023/11/20 13:36:29;;;;;;;5.40;1.60;;;12.70;38.70;;;;;;5025336;28;20586;-89
2023/11/20 13:38:57;;;;;;;6.22;1.85;;;12.70;41.70;;;;;;5028290;28;20195;-89
2023/11/20 13:41:25;;;;;;;6.15;1.70;;;12.90;41.60;;;;;;5011943;28;20203;-89
2023/11/20 13:43:53;;;;;;;3.72;1.65;;;12.90;37.90;;;;;;5026550;28;20561;-89
2023/11/20 13:46:21;;;;;;;8.43;1.75;;;12.90;42.50;;;;;;5028729;28;20213;-89
2023/11/20 13:48:48;;;;;;;4.20;1.63;;;12.90;38.20;;;;;;5020498;28;20313;-89
2023/11/20 13:51:18;;;;;;;4.10;1.83;;;12.80;38.80;;;;;;5007262;28;20245;-89
2023/11/20 13:53:46;;;;;;;4.88;1.70;;;12.80;39.40;;;;;;5028509;28;20188;-89
2023/11/20 13:56:13;;;;;;;4.22;1.65;;;12.90;38.70;;;;;;5030194;28;20290;-89
2023/11/20 13:58:40;;;;;;;5.60;1.65;;;12.80;39.20;;;;;;5032015;28;20629;-89
2023/11/20 14:01:09;;;;;;;6.18;1.90;;;12.80;39.70;;;;;;5030879;28;20204;-90
2023/11/20 14:03:37;;;;;;;5.22;1.70;;;12.70;40.20;;;;;;5032747;28;20206;-89
2023/11/20 14:06:04;;;;;;;5.38;1.90;;;12.70;36.00;;;;;;5027692;28;20230;-89
2023/11/20 14:08:34;;;;;;;5.70;1.88;;;12.60;35.50;;;;;;5028103;28;20218;-89
2023/11/20 14:11:01;;;;;;;5.07;1.55;;;12.60;34.60;;;;;;5026656;28;20195;-89
2023/11/20 14:13:28;;;;;;;5.40;1.70;;;12.40;34.90;;;;;;5031107;28;20220;-89
2023/11/20 14:15:56;;;;;;;6.80;1.83;;;12.30;34.50;;;;;;5032295;28;20194;-89
2023/11/20 14:18:27;;;;;;;7.45;1.90;;;12.20;34.70;;;;;;5028879;28;20622;-89
2023/11/20 14:20:55;;;;;;;5.28;1.60;;;12.20;34.90;;;;;;5026315;28;20249;-89
2023/11/20 14:23:22;;;;;;;5.18;1.80;;;12.20;37.00;;;;;;5029263;28;20210;-89
2023/11/20 14:25:50;;;;;;;5.47;1.70;;;12.20;36.60;;;;;;5025925;28;20209;-89
2023/11/20 14:28:17;;;;;;;2.58;1.40;;;12.10;34.20;;;;;;5027846;28;20224;-89
2023/11/20 14:30:44;;;;;;;4.32;1.83;;;12.10;35.30;;;;;;5030666;28;20212;-89
2023/11/20 14:33:12;;;;;;;5.32;1.80;;;12.00;37.60;;;;;;5031729;28;20380;-88
2023/11/20 14:35:42;;;;;;;5.40;1.90;;;11.90;39.90;;;;;;5025648;28;20198;-88
2023/11/20 14:38:11;;;;;;;5.20;2.00;;;11.70;40.50;;;;;;5029169;28;20226;-88
2023/11/20 14:40:39;;;;;;;6.05;2.10;;;11.60;41.00;;;;;;5032980;28;20223;-88
2023/11/20 14:43:08;;;;;;;7.72;1.98;;;11.60;41.10;;;;;;5029083;28;20191;-88
2023/11/20 14:45:37;;;;;;;6.38;1.90;;;11.50;42.90;;;;;;5023471;28;20199;-89
2023/11/20 14:48:04;;;;;;;5.78;2.20;;;11.40;45.50;;;;;;5024811;28;20218;-89
2023/11/20 14:50:31;;;;;;;5.28;1.77;;;11.40;46.10;;;;;;5021686;28;20215;-88
2023/11/20 14:52:59;;;;;;;4.85;1.80;;;11.20;46.60;;;;;;5029722;28;20206;-88
2023/11/20 14:55:25;;;;;;;4.40;1.90;;;11.10;47.80;;;;;;5027637;28;20199;-88
2023/11/20 14:57:53;;;;;;;6.50;1.70;;;11.10;47.80;;;;;;5009780;28;20210;-89
2023/11/20 15:00:23;;;;;;;6.38;1.80;;;11.00;48.60;;;;;;5026402;28;20648;-89